WetterOnline ( https://www.wetteronline.ch )

Wetter aktuell Dresden

Aktuelles Wetter: Dresden/Klotzsche (232m)

6-stündlich | Neueste Meldungen
Ortszeit Temperatur Wetter
Di, 14.07. 2:00 16.2° C fast wolkenlos
Mo, 13.07. 20:00 23.0° C leicht bewölkt
Mo, 13.07. 14:00 21.7° C leicht bewölkt
Mo, 13.07. 8:00 12.8° C leicht bewölkt
Mo, 13.07. 2:00 13.0° C wolkenlos
So, 12.07. 20:00 19.8° C leicht bewölkt
So, 12.07. 14:00 18.8° C wolkig
So, 12.07. 8:00 13.5° C leicht bewölkt
Ortszeit Temperatur Wetter
Di, 14.07. 2:20 15° C -
Di, 14.07. 2:00 16.2° C fast wolkenlos
Di, 14.07. 1:50 16.2° C wolkenlos
Di, 14.07. 1:40 16.3° C fast wolkenlos
Di, 14.07. 1:30 16.1° C wolkig
Di, 14.07. 1:20 16.1° C wolkig
Di, 14.07. 1:00 15.7° C leicht bewölkt
Di, 14.07. 0:30 16.3° C wolkenlos
Di, 14.07. 0:00 16.7° C fast wolkenlos
Mo, 13.07. 23:30 17.6° C wolkenlos
Mo, 13.07. 23:00 17.8° C leicht bewölkt
Ortszeit Relative Feuchte Sichtweite
Di, 14.07. 2:00 54% 55 km
Mo, 13.07. 20:00 31% 65 km
Mo, 13.07. 14:00 32% 70 km
Mo, 13.07. 8:00 62% 70 km
Mo, 13.07. 2:00 60% 55 km
So, 12.07. 20:00 33% 60 km
So, 12.07. 14:00 40% 70 km
So, 12.07. 8:00 65% 60 km
Ortszeit Relative Feuchte Sichtweite
Di, 14.07. 2:20 59% >10 km
Di, 14.07. 2:00 54% 55 km
Di, 14.07. 1:50 54% -
Di, 14.07. 1:40 54% -
Di, 14.07. 1:30 56% >70 km
Di, 14.07. 1:20 56% -
Di, 14.07. 1:00 59% 55 km
Di, 14.07. 0:30 56% >70 km
Di, 14.07. 0:00 54% 55 km
Mo, 13.07. 23:30 52% >70 km
Mo, 13.07. 23:00 50% 55 km
Ortszeit Niederschlagsmenge Niederschlagsart
Di, 14.07. 2:00 0.0 l/m2 in 6 Std. -
Mo, 13.07. 20:00 0.0 l/m2 in 12 Std. -
Mo, 13.07. 14:00 0.0 l/m2 in 6 Std. -
Mo, 13.07. 8:00 0.0 l/m2 in 12 Std. -
Mo, 13.07. 2:00 0.0 l/m2 in 6 Std. -
So, 12.07. 20:00 0.0 l/m2 in 12 Std. -
So, 12.07. 14:00 0.0 l/m2 in 6 Std. -
So, 12.07. 8:00 0.0 l/m2 in 12 Std. -
Ortszeit Niederschlagsmenge Niederschlagsart
Di, 14.07. 2:20 keine Meldung -
Di, 14.07. 2:00 0.0 l/m2 in 1 Std. -
Di, 14.07. 1:50 keine Meldung -
Di, 14.07. 1:40 keine Meldung -
Di, 14.07. 1:30 0.0 l/m2 in 1 Std. -
Di, 14.07. 1:20 keine Meldung -
Di, 14.07. 1:00 0.0 l/m2 in 1 Std. -
Di, 14.07. 0:30 0.0 l/m2 in 1 Std. -
Di, 14.07. 0:00 0.0 l/m2 in 1 Std. -
Mo, 13.07. 23:30 0.0 l/m2 in 1 Std. -
Mo, 13.07. 23:00 0.0 l/m2 in 1 Std. -
Ortszeit Stärke Spitze Richtung
km/h Bft. km/h Grad Sektor
Di, 14.07. 2:00 14 3 18 150° SO
Mo, 13.07. 20:00 9 2 24 90° O
Mo, 13.07. 14:00 7 2 22 110° O
Mo, 13.07. 8:00 7 2 18 170° S
Mo, 13.07. 2:00 4 1 14 110° O
So, 12.07. 20:00 11 2 36 330° NW
So, 12.07. 14:00 14 3 32 310° NW
So, 12.07. 8:00 9 2 15 280° W
Ortszeit Stärke Spitze Richtung
km/h Bft. km/h Grad Sektor
Di, 14.07. 2:20 11 2 - 160° S
Di, 14.07. 2:00 14 3 18 150° SO
Di, 14.07. 1:50 14 3 - 150° SO
Di, 14.07. 1:40 14 3 - 150° SO
Di, 14.07. 1:30 14 3 18 150° SO
Di, 14.07. 1:20 14 3 - 150° SO
Di, 14.07. 1:00 14 3 18 170° S
Di, 14.07. 0:30 13 3 17 160° S
Di, 14.07. 0:00 13 3 15 160° S
Mo, 13.07. 23:30 11 2 14 150° SO
Mo, 13.07. 23:00 11 2 19 140° SO
Ortszeit Untergrenze Bedeckung Gattung
total tief tief mittel hoch
Di, 14.07. 2:00 7500 m 1/8 0/8 - - Ci
Mo, 13.07. 20:00 2100 m 4/8 1/8 Sc - Ci
Mo, 13.07. 14:00 1800 m 3/8 3/8 Cu - Ci
Mo, 13.07. 8:00 10500 m 3/8 0/8 - - Ci
Mo, 13.07. 2:00 - 0/8 0/8 - - -
So, 12.07. 20:00 2100 m 3/8 2/8 Cu Ac -
So, 12.07. 14:00 1500 m 7/8 4/8 Cu Ac -
So, 12.07. 8:00 1800 m 2/8 2/8 Sc - -
Ortszeit Bedeckungsgrad in Achtel und Wolkenuntergrenze
Di, 14.07. 2:20 keine Wolken(unter 1500 m)
Di, 14.07. 2:00 1(7500m)
Di, 14.07. 1:50 keine Wolken
Di, 14.07. 1:40 2(8100m)
Di, 14.07. 1:30 4(6900m) 7(7800m)
Di, 14.07. 1:20 4(6900m) 7(7800m)
Di, 14.07. 1:00 2(7200m) 7(7500m)
Di, 14.07. 0:30 3(7200m)
Di, 14.07. 0:00 1(3300m)
Mo, 13.07. 23:30 keine Wolken
Mo, 13.07. 23:00 1(3300m)
Ortszeit Luftdruck NN (hPa) Tendenz (hPa in 3 Std.)
Di, 14.07. 2:00 1019 - 0,8
Mo, 13.07. 20:00 1019 - 1,4
Mo, 13.07. 14:00 1023 - 1,7
Mo, 13.07. 8:00 1026 - 0,3
Mo, 13.07. 2:00 1027 + 0,1
So, 12.07. 20:00 1026 - 0,3
So, 12.07. 14:00 1027 - 0,1
So, 12.07. 8:00 1027 + 1,3
Ortszeit Luftdruck NN (hPa) Tendenz (hPa in 3 Std.)
Di, 14.07. 2:20 1019 keine Meldung
Di, 14.07. 2:00 1019 - 0,8
Di, 14.07. 1:50 1019 keine Meldung
Di, 14.07. 1:40 1019 keine Meldung
Di, 14.07. 1:30 1019 - 0,7
Di, 14.07. 1:20 1019 keine Meldung
Di, 14.07. 1:00 1019 - 0,7
Di, 14.07. 0:30 1020 - 0,3
Di, 14.07. 0:00 1020 - 0,2
Mo, 13.07. 23:30 1020 0,0
Mo, 13.07. 23:00 1020 0,0
Ortszeit Schneehöhe (cm)
Di, 14.07. 2:00 0
Mo, 13.07. 20:00 0
Mo, 13.07. 14:00 0
Mo, 13.07. 8:00 0
Mo, 13.07. 2:00 0
So, 12.07. 20:00 0
So, 12.07. 14:00 0
So, 12.07. 8:00 0
Ortszeit Schneehöhe (cm)
Di, 14.07. 2:20 -
Di, 14.07. 2:00 0
Di, 14.07. 1:50 -
Di, 14.07. 1:40 -
Di, 14.07. 1:30 -
Di, 14.07. 1:20 -
Di, 14.07. 1:00 -
Di, 14.07. 0:30 -
Di, 14.07. 0:00 -
Mo, 13.07. 23:30 -
Mo, 13.07. 23:00 -
Link zu dieser Seite / Seite empfehlen

Das Wetter in ...